Main page
METAR-TAF:

METAR-TAF

Airports :

Baghdad, Iraq

Baghdad International Airport

latitude: 33-15-45N, longitude: 44-14-04E, elevation: 35 m

Current weather observation

The report was made 23 minutes ago, at 20:00 UTC
Wind 2 kt from variable directions
Temperature 11°C
Humidity 62%
Pressure 1024 hPa
Visibility: 8000 m

METAR: ORBI 182000Z VRB02KT 8000 NSC 11/04 Q1024 NOSIG

Time: 23:23 (20:23 UTC)

Forecast

The report was made 4 hours and 23 minutes ago, at 16:00 UTC
Forecast valid from 18 at 18 UTC to 19 at 18 UTC
Wind 3 kt from variable directions
Visibility 10 km or more
Scattered clouds at a height of 3500 ft

TAF: ORBI 181600Z 1818/1918 VRB03KT 9999 SCT035

Weather observations and forecasts of more than 4000 airports (METAR and TAF reports).

The available stations are represented by yellow and red dots on the map.

Hover mouse over dot to see the name of the station.

Then click to see weather observations and forecasts.

To change the map : click on the green buttons with a black cross to zoom in, on the green button with a dash to zoom out, or on the green arrows for adjacent maps.


METAR-TAF: